sensor_id;sensor_type;location;lat;lon;timestamp;P1;durP1;ratioP1;P2;durP2;ratioP2
12681;SDS011;6405;59.208;18.216;2022-12-05T00:03:48;14.33;;;6.97;;
12681;SDS011;6405;59.208;18.216;2022-12-05T00:06:18;13.70;;;7.13;;
12681;SDS011;6405;59.208;18.216;2022-12-05T00:08:45;13.67;;;7.20;;
12681;SDS011;6405;59.208;18.216;2022-12-05T00:11:13;12.80;;;7.10;;
12681;SDS011;6405;59.208;18.216;2022-12-05T00:13:41;12.43;;;7.30;;
12681;SDS011;6405;59.208;18.216;2022-12-05T00:16:08;14.93;;;8.33;;
12681;SDS011;6405;59.208;18.216;2022-12-05T00:18:38;13.20;;;7.23;;
12681;SDS011;6405;59.208;18.216;2022-12-05T00:21:06;13.17;;;7.20;;
12681;SDS011;6405;59.208;18.216;2022-12-05T00:23:37;10.73;;;6.60;;
12681;SDS011;6405;59.208;18.216;2022-12-05T00:26:04;12.90;;;6.93;;
12681;SDS011;6405;59.208;18.216;2022-12-05T00:28:31;15.17;;;7.40;;
12681;SDS011;6405;59.208;18.216;2022-12-05T00:31:06;14.10;;;7.37;;
12681;SDS011;6405;59.208;18.216;2022-12-05T00:33:35;9.67;;;5.37;;
12681;SDS011;6405;59.208;18.216;2022-12-05T00:36:04;10.33;;;6.67;;
12681;SDS011;6405;59.208;18.216;2022-12-05T00:38:32;12.73;;;6.70;;
12681;SDS011;6405;59.208;18.216;2022-12-05T00:41:05;11.00;;;6.27;;
12681;SDS011;6405;59.208;18.216;2022-12-05T00:43:34;11.30;;;6.40;;
12681;SDS011;6405;59.208;18.216;2022-12-05T00:46:07;8.90;;;5.50;;
12681;SDS011;6405;59.208;18.216;2022-12-05T00:48:35;11.43;;;6.07;;
12681;SDS011;6405;59.208;18.216;2022-12-05T00:51:07;9.77;;;5.30;;
12681;SDS011;6405;59.208;18.216;2022-12-05T00:53:36;12.27;;;6.43;;
12681;SDS011;6405;59.208;18.216;2022-12-05T00:56:08;10.87;;;5.43;;
12681;SDS011;6405;59.208;18.216;2022-12-05T00:58:37;10.47;;;5.63;;
12681;SDS011;6405;59.208;18.216;2022-12-05T01:01:06;10.83;;;5.70;;
12681;SDS011;6405;59.208;18.216;2022-12-05T01:03:45;8.90;;;5.60;;
12681;SDS011;6405;59.208;18.216;2022-12-05T01:06:12;8.43;;;4.87;;
12681;SDS011;6405;59.208;18.216;2022-12-05T01:08:40;9.63;;;5.43;;
12681;SDS011;6405;59.208;18.216;2022-12-05T01:11:07;9.70;;;4.83;;
12681;SDS011;6405;59.208;18.216;2022-12-05T01:13:35;6.20;;;4.67;;
12681;SDS011;6405;59.208;18.216;2022-12-05T01:16:03;8.13;;;5.17;;
12681;SDS011;6405;59.208;18.216;2022-12-05T01:18:30;11.10;;;4.73;;
12681;SDS011;6405;59.208;18.216;2022-12-05T01:20:57;8.67;;;4.77;;
12681;SDS011;6405;59.208;18.216;2022-12-05T01:23:24;8.03;;;4.87;;
12681;SDS011;6405;59.208;18.216;2022-12-05T01:25:50;9.60;;;4.80;;
12681;SDS011;6405;59.208;18.216;2022-12-05T01:28:17;10.87;;;5.13;;
12681;SDS011;6405;59.208;18.216;2022-12-05T01:30:45;9.60;;;5.00;;
12681;SDS011;6405;59.208;18.216;2022-12-05T01:33:13;7.43;;;4.43;;
12681;SDS011;6405;59.208;18.216;2022-12-05T01:35:41;19.90;;;5.57;;
12681;SDS011;6405;59.208;18.216;2022-12-05T01:38:09;15.77;;;4.97;;
12681;SDS011;6405;59.208;18.216;2022-12-05T01:40:40;8.37;;;5.00;;
12681;SDS011;6405;59.208;18.216;2022-12-05T01:43:13;19.90;;;5.40;;
12681;SDS011;6405;59.208;18.216;2022-12-05T01:45:42;15.37;;;5.90;;
12681;SDS011;6405;59.208;18.216;2022-12-05T01:48:18;19.77;;;4.70;;
12681;SDS011;6405;59.208;18.216;2022-12-05T01:50:49;11.80;;;4.80;;
12681;SDS011;6405;59.208;18.216;2022-12-05T01:53:16;27.53;;;5.37;;
12681;SDS011;6405;59.208;18.216;2022-12-05T01:55:44;8.73;;;4.73;;
12681;SDS011;6405;59.208;18.216;2022-12-05T01:58:12;11.07;;;4.23;;
12681;SDS011;6405;59.208;18.216;2022-12-05T02:00:40;8.20;;;3.93;;
12681;SDS011;6405;59.208;18.216;2022-12-05T02:03:08;12.30;;;4.23;;
12681;SDS011;6405;59.208;18.216;2022-12-05T02:05:40;10.10;;;4.17;;
12681;SDS011;6405;59.208;18.216;2022-12-05T02:08:07;42.60;;;4.53;;
12681;SDS011;6405;59.208;18.216;2022-12-05T02:10:41;33.80;;;4.60;;
12681;SDS011;6405;59.208;18.216;2022-12-05T02:15:53;19.60;;;3.47;;
12681;SDS011;6405;59.208;18.216;2022-12-05T02:24:31;10.97;;;3.57;;
12681;SDS011;6405;59.208;18.216;2022-12-05T02:30:21;7.47;;;3.07;;
12681;SDS011;6405;59.208;18.216;2022-12-05T02:36:02;9.67;;;4.00;;
12681;SDS011;6405;59.208;18.216;2022-12-05T02:39:16;16.17;;;4.23;;
12681;SDS011;6405;59.208;18.216;2022-12-05T02:41:38;32.20;;;5.23;;
12681;SDS011;6405;59.208;18.216;2022-12-05T02:44:13;22.20;;;4.40;;
12681;SDS011;6405;59.208;18.216;2022-12-05T02:46:46;11.73;;;3.10;;
12681;SDS011;6405;59.208;18.216;2022-12-05T02:49:20;20.37;;;4.10;;
12681;SDS011;6405;59.208;18.216;2022-12-05T02:51:51;24.33;;;4.10;;
12681;SDS011;6405;59.208;18.216;2022-12-05T02:54:22;8.83;;;3.30;;
12681;SDS011;6405;59.208;18.216;2022-12-05T02:56:52;11.53;;;4.10;;
12681;SDS011;6405;59.208;18.216;2022-12-05T02:59:21;17.07;;;4.50;;
12681;SDS011;6405;59.208;18.216;2022-12-05T03:01:48;11.63;;;3.13;;
12681;SDS011;6405;59.208;18.216;2022-12-05T03:04:16;15.90;;;4.47;;
12681;SDS011;6405;59.208;18.216;2022-12-05T03:06:50;11.90;;;4.07;;
12681;SDS011;6405;59.208;18.216;2022-12-05T03:09:22;9.63;;;3.73;;
12681;SDS011;6405;59.208;18.216;2022-12-05T03:11:51;5.40;;;3.53;;
12681;SDS011;6405;59.208;18.216;2022-12-05T03:14:26;10.53;;;4.20;;
12681;SDS011;6405;59.208;18.216;2022-12-05T03:16:58;49.97;;;6.77;;
12681;SDS011;6405;59.208;18.216;2022-12-05T03:19:33;30.37;;;4.80;;
12681;SDS011;6405;59.208;18.216;2022-12-05T03:22:13;65.50;;;7.17;;
12681;SDS011;6405;59.208;18.216;2022-12-05T03:24:57;28.17;;;4.63;;
12681;SDS011;6405;59.208;18.216;2022-12-05T03:27:29;11.70;;;4.10;;
12681;SDS011;6405;59.208;18.216;2022-12-05T03:30:08;34.33;;;7.70;;
12681;SDS011;6405;59.208;18.216;2022-12-05T03:32:47;24.87;;;4.97;;
12681;SDS011;6405;59.208;18.216;2022-12-05T03:35:22;26.10;;;4.20;;
12681;SDS011;6405;59.208;18.216;2022-12-05T03:37:51;34.37;;;5.60;;
12681;SDS011;6405;59.208;18.216;2022-12-05T03:40:24;14.40;;;4.23;;
12681;SDS011;6405;59.208;18.216;2022-12-05T03:48:22;8.30;;;4.30;;
12681;SDS011;6405;59.208;18.216;2022-12-05T03:51:02;7.37;;;3.57;;
12681;SDS011;6405;59.208;18.216;2022-12-05T03:53:43;7.07;;;4.00;;
12681;SDS011;6405;59.208;18.216;2022-12-05T03:56:33;6.50;;;3.90;;
12681;SDS011;6405;59.208;18.216;2022-12-05T03:59:15;6.77;;;3.70;;
12681;SDS011;6405;59.208;18.216;2022-12-05T04:01:45;10.90;;;3.97;;
12681;SDS011;6405;59.208;18.216;2022-12-05T04:04:14;10.30;;;4.50;;
12681;SDS011;6405;59.208;18.216;2022-12-05T04:06:46;5.37;;;3.30;;
12681;SDS011;6405;59.208;18.216;2022-12-05T04:09:21;7.00;;;4.00;;
12681;SDS011;6405;59.208;18.216;2022-12-05T04:12:18;8.90;;;4.40;;
12681;SDS011;6405;59.208;18.216;2022-12-05T04:14:49;9.67;;;4.50;;
12681;SDS011;6405;59.208;18.216;2022-12-05T04:20:26;7.03;;;3.97;;
12681;SDS011;6405;59.208;18.216;2022-12-05T04:23:21;8.47;;;4.63;;
12681;SDS011;6405;59.208;18.216;2022-12-05T04:28:48;19.00;;;5.10;;
12681;SDS011;6405;59.208;18.216;2022-12-05T04:31:22;8.43;;;4.93;;
12681;SDS011;6405;59.208;18.216;2022-12-05T04:34:03;9.40;;;4.83;;
12681;SDS011;6405;59.208;18.216;2022-12-05T04:39:09;15.87;;;5.23;;
12681;SDS011;6405;59.208;18.216;2022-12-05T04:41:47;16.17;;;5.87;;
12681;SDS011;6405;59.208;18.216;2022-12-05T04:44:28;10.67;;;5.17;;
12681;SDS011;6405;59.208;18.216;2022-12-05T04:47:02;12.80;;;5.37;;
12681;SDS011;6405;59.208;18.216;2022-12-05T04:49:32;9.93;;;4.97;;
12681;SDS011;6405;59.208;18.216;2022-12-05T04:52:02;8.63;;;4.87;;
12681;SDS011;6405;59.208;18.216;2022-12-05T04:54:48;13.07;;;5.80;;
12681;SDS011;6405;59.208;18.216;2022-12-05T04:57:26;10.37;;;5.43;;
12681;SDS011;6405;59.208;18.216;2022-12-05T04:59:59;9.53;;;5.60;;
12681;SDS011;6405;59.208;18.216;2022-12-05T05:02:28;14.13;;;6.10;;
12681;SDS011;6405;59.208;18.216;2022-12-05T05:05:03;11.30;;;6.23;;
12681;SDS011;6405;59.208;18.216;2022-12-05T05:07:41;13.30;;;6.70;;
12681;SDS011;6405;59.208;18.216;2022-12-05T05:10:10;8.93;;;5.13;;
12681;SDS011;6405;59.208;18.216;2022-12-05T05:12:40;10.00;;;5.90;;
12681;SDS011;6405;59.208;18.216;2022-12-05T05:15:09;12.20;;;6.50;;
12681;SDS011;6405;59.208;18.216;2022-12-05T05:17:36;9.17;;;6.17;;
12681;SDS011;6405;59.208;18.216;2022-12-05T05:20:04;14.27;;;7.03;;
12681;SDS011;6405;59.208;18.216;2022-12-05T05:22:53;11.57;;;7.00;;
12681;SDS011;6405;59.208;18.216;2022-12-05T05:25:20;11.30;;;5.83;;
12681;SDS011;6405;59.208;18.216;2022-12-05T05:27:49;10.77;;;5.93;;
12681;SDS011;6405;59.208;18.216;2022-12-05T05:30:17;10.13;;;6.10;;
12681;SDS011;6405;59.208;18.216;2022-12-05T05:32:44;9.17;;;5.70;;
12681;SDS011;6405;59.208;18.216;2022-12-05T05:35:11;9.90;;;6.43;;
12681;SDS011;6405;59.208;18.216;2022-12-05T05:37:38;10.07;;;6.63;;
12681;SDS011;6405;59.208;18.216;2022-12-05T05:40:06;12.67;;;6.23;;
12681;SDS011;6405;59.208;18.216;2022-12-05T05:42:34;10.53;;;6.13;;
12681;SDS011;6405;59.208;18.216;2022-12-05T05:45:02;9.37;;;5.37;;
12681;SDS011;6405;59.208;18.216;2022-12-05T05:47:29;11.60;;;6.50;;
12681;SDS011;6405;59.208;18.216;2022-12-05T05:49:57;11.77;;;6.23;;
12681;SDS011;6405;59.208;18.216;2022-12-05T05:52:23;15.23;;;6.83;;
12681;SDS011;6405;59.208;18.216;2022-12-05T05:54:52;11.93;;;6.13;;
12681;SDS011;6405;59.208;18.216;2022-12-05T05:57:19;13.40;;;6.53;;
12681;SDS011;6405;59.208;18.216;2022-12-05T05:59:46;9.77;;;5.30;;
12681;SDS011;6405;59.208;18.216;2022-12-05T06:02:13;12.20;;;6.57;;
12681;SDS011;6405;59.208;18.216;2022-12-05T06:04:40;10.87;;;5.97;;
12681;SDS011;6405;59.208;18.216;2022-12-05T06:07:07;10.80;;;6.13;;
12681;SDS011;6405;59.208;18.216;2022-12-05T06:09:33;9.50;;;6.57;;
12681;SDS011;6405;59.208;18.216;2022-12-05T06:12:01;10.00;;;6.60;;
12681;SDS011;6405;59.208;18.216;2022-12-05T06:14:27;13.70;;;8.17;;
12681;SDS011;6405;59.208;18.216;2022-12-05T06:16:54;13.10;;;8.07;;
12681;SDS011;6405;59.208;18.216;2022-12-05T06:19:22;13.67;;;7.00;;
12681;SDS011;6405;59.208;18.216;2022-12-05T06:21:49;14.43;;;7.23;;
12681;SDS011;6405;59.208;18.216;2022-12-05T06:24:15;26.27;;;14.63;;
12681;SDS011;6405;59.208;18.216;2022-12-05T06:26:43;17.17;;;10.40;;
12681;SDS011;6405;59.208;18.216;2022-12-05T06:29:11;12.23;;;7.33;;
12681;SDS011;6405;59.208;18.216;2022-12-05T06:31:38;16.67;;;9.70;;
12681;SDS011;6405;59.208;18.216;2022-12-05T06:34:07;20.00;;;8.97;;
12681;SDS011;6405;59.208;18.216;2022-12-05T06:36:34;11.33;;;7.20;;
12681;SDS011;6405;59.208;18.216;2022-12-05T06:39:01;15.50;;;7.87;;
12681;SDS011;6405;59.208;18.216;2022-12-05T06:41:29;12.00;;;7.30;;
12681;SDS011;6405;59.208;18.216;2022-12-05T06:43:57;15.43;;;6.97;;
12681;SDS011;6405;59.208;18.216;2022-12-05T06:46:24;17.20;;;10.97;;
12681;SDS011;6405;59.208;18.216;2022-12-05T06:48:52;12.97;;;7.93;;
12681;SDS011;6405;59.208;18.216;2022-12-05T06:51:23;14.17;;;8.43;;
12681;SDS011;6405;59.208;18.216;2022-12-05T06:53:50;11.93;;;7.43;;
12681;SDS011;6405;59.208;18.216;2022-12-05T06:56:18;14.80;;;8.27;;
12681;SDS011;6405;59.208;18.216;2022-12-05T06:58:46;14.13;;;7.40;;
12681;SDS011;6405;59.208;18.216;2022-12-05T07:01:16;18.60;;;7.50;;
12681;SDS011;6405;59.208;18.216;2022-12-05T07:04:04;10.77;;;6.10;;
12681;SDS011;6405;59.208;18.216;2022-12-05T07:06:33;11.40;;;6.43;;
12681;SDS011;6405;59.208;18.216;2022-12-05T07:09:00;9.60;;;6.13;;
12681;SDS011;6405;59.208;18.216;2022-12-05T07:11:28;11.03;;;6.13;;
12681;SDS011;6405;59.208;18.216;2022-12-05T07:13:54;13.10;;;6.63;;
12681;SDS011;6405;59.208;18.216;2022-12-05T07:16:22;13.03;;;7.20;;
12681;SDS011;6405;59.208;18.216;2022-12-05T07:18:49;15.10;;;8.27;;
12681;SDS011;6405;59.208;18.216;2022-12-05T07:21:16;11.67;;;6.93;;
12681;SDS011;6405;59.208;18.216;2022-12-05T07:23:44;17.20;;;7.50;;
12681;SDS011;6405;59.208;18.216;2022-12-05T07:26:13;14.13;;;7.40;;
12681;SDS011;6405;59.208;18.216;2022-12-05T07:28:41;12.13;;;6.43;;
12681;SDS011;6405;59.208;18.216;2022-12-05T07:31:10;11.07;;;6.80;;
12681;SDS011;6405;59.208;18.216;2022-12-05T07:33:39;11.87;;;6.77;;
12681;SDS011;6405;59.208;18.216;2022-12-05T07:36:13;13.03;;;6.17;;
12681;SDS011;6405;59.208;18.216;2022-12-05T07:38:46;10.23;;;6.43;;
12681;SDS011;6405;59.208;18.216;2022-12-05T07:41:18;9.67;;;6.77;;
12681;SDS011;6405;59.208;18.216;2022-12-05T07:43:47;11.83;;;6.07;;
12681;SDS011;6405;59.208;18.216;2022-12-05T07:46:17;9.43;;;5.47;;
12681;SDS011;6405;59.208;18.216;2022-12-05T07:48:46;10.70;;;6.17;;
12681;SDS011;6405;59.208;18.216;2022-12-05T07:51:14;10.10;;;6.33;;
12681;SDS011;6405;59.208;18.216;2022-12-05T07:53:43;9.00;;;5.93;;
12681;SDS011;6405;59.208;18.216;2022-12-05T07:56:11;12.50;;;6.93;;
12681;SDS011;6405;59.208;18.216;2022-12-05T07:58:43;16.93;;;7.37;;
12681;SDS011;6405;59.208;18.216;2022-12-05T08:01:14;10.13;;;6.97;;
12681;SDS011;6405;59.208;18.216;2022-12-05T08:03:42;11.90;;;8.00;;
12681;SDS011;6405;59.208;18.216;2022-12-05T08:06:11;12.40;;;7.20;;
12681;SDS011;6405;59.208;18.216;2022-12-05T08:08:39;10.73;;;6.40;;
12681;SDS011;6405;59.208;18.216;2022-12-05T08:11:08;11.93;;;7.10;;
12681;SDS011;6405;59.208;18.216;2022-12-05T08:13:40;11.10;;;6.43;;
12681;SDS011;6405;59.208;18.216;2022-12-05T08:16:11;14.70;;;6.93;;
12681;SDS011;6405;59.208;18.216;2022-12-05T08:18:43;10.23;;;6.03;;
12681;SDS011;6405;59.208;18.216;2022-12-05T08:21:12;9.10;;;5.87;;
12681;SDS011;6405;59.208;18.216;2022-12-05T08:23:41;12.37;;;7.73;;
12681;SDS011;6405;59.208;18.216;2022-12-05T08:26:15;10.60;;;7.00;;
12681;SDS011;6405;59.208;18.216;2022-12-05T08:28:46;12.33;;;7.20;;
12681;SDS011;6405;59.208;18.216;2022-12-05T08:31:20;13.63;;;8.43;;
12681;SDS011;6405;59.208;18.216;2022-12-05T08:33:50;17.57;;;8.00;;
12681;SDS011;6405;59.208;18.216;2022-12-05T08:36:18;11.80;;;7.47;;
12681;SDS011;6405;59.208;18.216;2022-12-05T08:38:47;13.37;;;7.10;;
12681;SDS011;6405;59.208;18.216;2022-12-05T08:41:15;11.03;;;6.97;;
12681;SDS011;6405;59.208;18.216;2022-12-05T08:43:43;10.77;;;6.93;;
12681;SDS011;6405;59.208;18.216;2022-12-05T08:46:09;11.67;;;7.23;;
12681;SDS011;6405;59.208;18.216;2022-12-05T08:48:36;15.80;;;8.97;;
12681;SDS011;6405;59.208;18.216;2022-12-05T08:51:07;14.03;;;7.80;;
12681;SDS011;6405;59.208;18.216;2022-12-05T08:53:36;12.97;;;7.93;;
12681;SDS011;6405;59.208;18.216;2022-12-05T08:56:06;13.57;;;8.13;;
12681;SDS011;6405;59.208;18.216;2022-12-05T08:58:34;15.97;;;8.47;;
12681;SDS011;6405;59.208;18.216;2022-12-05T09:01:04;12.57;;;5.40;;
12681;SDS011;6405;59.208;18.216;2022-12-05T09:03:38;10.20;;;5.70;;
12681;SDS011;6405;59.208;18.216;2022-12-05T09:06:11;8.17;;;5.47;;
12681;SDS011;6405;59.208;18.216;2022-12-05T09:08:41;9.77;;;6.27;;
12681;SDS011;6405;59.208;18.216;2022-12-05T09:11:13;13.53;;;5.60;;
12681;SDS011;6405;59.208;18.216;2022-12-05T09:13:41;11.37;;;5.47;;
12681;SDS011;6405;59.208;18.216;2022-12-05T09:16:10;11.40;;;6.13;;
12681;SDS011;6405;59.208;18.216;2022-12-05T09:18:39;12.77;;;7.27;;
12681;SDS011;6405;59.208;18.216;2022-12-05T09:21:14;13.33;;;6.63;;
12681;SDS011;6405;59.208;18.216;2022-12-05T09:23:45;9.37;;;6.00;;
12681;SDS011;6405;59.208;18.216;2022-12-05T09:26:14;8.33;;;6.03;;
12681;SDS011;6405;59.208;18.216;2022-12-05T09:28:42;11.33;;;6.47;;
12681;SDS011;6405;59.208;18.216;2022-12-05T09:31:10;13.13;;;6.80;;
12681;SDS011;6405;59.208;18.216;2022-12-05T09:33:40;11.13;;;6.10;;
12681;SDS011;6405;59.208;18.216;2022-12-05T09:36:10;10.00;;;6.90;;
12681;SDS011;6405;59.208;18.216;2022-12-05T09:38:47;9.67;;;5.83;;
12681;SDS011;6405;59.208;18.216;2022-12-05T09:43:52;10.97;;;6.53;;
12681;SDS011;6405;59.208;18.216;2022-12-05T09:46:44;11.53;;;7.03;;
12681;SDS011;6405;59.208;18.216;2022-12-05T09:49:18;9.57;;;6.53;;
12681;SDS011;6405;59.208;18.216;2022-12-05T09:51:45;14.30;;;7.40;;
12681;SDS011;6405;59.208;18.216;2022-12-05T09:54:13;20.80;;;10.47;;
12681;SDS011;6405;59.208;18.216;2022-12-05T09:56:42;15.13;;;8.77;;
12681;SDS011;6405;59.208;18.216;2022-12-05T09:59:11;17.23;;;9.33;;
12681;SDS011;6405;59.208;18.216;2022-12-05T10:20:56;30.10;;;14.77;;
12681;SDS011;6405;59.208;18.216;2022-12-05T10:26:04;23.83;;;11.57;;
12681;SDS011;6405;59.208;18.216;2022-12-05T10:28:39;17.70;;;9.13;;
12681;SDS011;6405;59.208;18.216;2022-12-05T10:31:24;20.77;;;10.03;;
12681;SDS011;6405;59.208;18.216;2022-12-05T10:34:59;18.80;;;10.37;;
12681;SDS011;6405;59.208;18.216;2022-12-05T10:39:34;16.67;;;9.27;;
12681;SDS011;6405;59.208;18.216;2022-12-05T10:42:05;15.70;;;8.67;;
12681;SDS011;6405;59.208;18.216;2022-12-05T10:44:34;15.07;;;9.60;;
12681;SDS011;6405;59.208;18.216;2022-12-05T10:47:02;11.97;;;7.87;;
12681;SDS011;6405;59.208;18.216;2022-12-05T10:49:29;11.17;;;7.73;;
12681;SDS011;6405;59.208;18.216;2022-12-05T10:51:58;12.37;;;7.47;;
12681;SDS011;6405;59.208;18.216;2022-12-05T10:54:29;11.37;;;7.30;;
12681;SDS011;6405;59.208;18.216;2022-12-05T10:57:02;12.03;;;6.80;;
12681;SDS011;6405;59.208;18.216;2022-12-05T10:59:50;11.33;;;6.77;;
12681;SDS011;6405;59.208;18.216;2022-12-05T11:02:18;9.90;;;6.40;;
12681;SDS011;6405;59.208;18.216;2022-12-05T11:04:47;8.97;;;6.30;;
12681;SDS011;6405;59.208;18.216;2022-12-05T11:09:57;10.70;;;6.23;;
12681;SDS011;6405;59.208;18.216;2022-12-05T11:17:44;14.63;;;7.60;;
12681;SDS011;6405;59.208;18.216;2022-12-05T11:22:45;20.03;;;11.93;;
12681;SDS011;6405;59.208;18.216;2022-12-05T11:27:54;12.90;;;8.00;;
12681;SDS011;6405;59.208;18.216;2022-12-05T11:33:33;17.40;;;9.07;;
12681;SDS011;6405;59.208;18.216;2022-12-05T11:36:10;15.13;;;9.37;;
12681;SDS011;6405;59.208;18.216;2022-12-05T11:38:49;27.87;;;16.53;;
12681;SDS011;6405;59.208;18.216;2022-12-05T11:49:43;15.13;;;7.70;;
12681;SDS011;6405;59.208;18.216;2022-12-05T12:00:28;10.27;;;6.70;;
12681;SDS011;6405;59.208;18.216;2022-12-05T12:06:06;11.97;;;7.87;;
12681;SDS011;6405;59.208;18.216;2022-12-05T12:28:58;14.33;;;8.40;;
12681;SDS011;6405;59.208;18.216;2022-12-05T12:34:42;15.83;;;8.47;;
12681;SDS011;6405;59.208;18.216;2022-12-05T12:43:03;14.57;;;7.90;;
12681;SDS011;6405;59.208;18.216;2022-12-05T12:46:13;16.73;;;9.23;;
12681;SDS011;6405;59.208;18.216;2022-12-05T12:51:24;13.23;;;8.17;;
12681;SDS011;6405;59.208;18.216;2022-12-05T12:53:53;14.07;;;7.30;;
12681;SDS011;6405;59.208;18.216;2022-12-05T13:01:59;14.47;;;7.47;;
12681;SDS011;6405;59.208;18.216;2022-12-05T13:04:46;12.27;;;6.77;;
12681;SDS011;6405;59.208;18.216;2022-12-05T13:07:30;11.97;;;7.23;;
12681;SDS011;6405;59.208;18.216;2022-12-05T13:10:11;12.57;;;7.23;;
12681;SDS011;6405;59.208;18.216;2022-12-05T13:12:44;11.93;;;7.10;;
12681;SDS011;6405;59.208;18.216;2022-12-05T13:15:14;10.17;;;7.00;;
12681;SDS011;6405;59.208;18.216;2022-12-05T13:17:45;13.10;;;8.23;;
12681;SDS011;6405;59.208;18.216;2022-12-05T13:20:15;9.30;;;6.17;;
12681;SDS011;6405;59.208;18.216;2022-12-05T13:22:45;13.37;;;6.90;;
12681;SDS011;6405;59.208;18.216;2022-12-05T13:25:16;12.13;;;6.77;;
12681;SDS011;6405;59.208;18.216;2022-12-05T13:27:54;16.00;;;6.80;;
12681;SDS011;6405;59.208;18.216;2022-12-05T13:30:23;19.20;;;7.40;;
12681;SDS011;6405;59.208;18.216;2022-12-05T13:32:56;17.00;;;8.20;;
12681;SDS011;6405;59.208;18.216;2022-12-05T13:38:21;15.73;;;7.90;;
12681;SDS011;6405;59.208;18.216;2022-12-05T13:41:19;10.30;;;6.20;;
12681;SDS011;6405;59.208;18.216;2022-12-05T13:44:05;9.73;;;6.17;;
12681;SDS011;6405;59.208;18.216;2022-12-05T13:46:36;10.37;;;6.00;;
12681;SDS011;6405;59.208;18.216;2022-12-05T13:52:03;13.80;;;6.10;;
12681;SDS011;6405;59.208;18.216;2022-12-05T13:54:33;10.03;;;6.30;;
12681;SDS011;6405;59.208;18.216;2022-12-05T13:57:08;9.93;;;6.17;;
12681;SDS011;6405;59.208;18.216;2022-12-05T14:00:21;11.10;;;5.73;;
12681;SDS011;6405;59.208;18.216;2022-12-05T14:02:55;11.00;;;6.13;;
12681;SDS011;6405;59.208;18.216;2022-12-05T14:07:53;12.73;;;6.17;;
12681;SDS011;6405;59.208;18.216;2022-12-05T14:12:54;9.77;;;7.00;;
12681;SDS011;6405;59.208;18.216;2022-12-05T14:18:08;10.97;;;7.03;;
12681;SDS011;6405;59.208;18.216;2022-12-05T14:36:52;9.30;;;5.70;;
12681;SDS011;6405;59.208;18.216;2022-12-05T14:44:54;9.40;;;6.30;;
12681;SDS011;6405;59.208;18.216;2022-12-05T14:47:29;12.63;;;6.33;;
12681;SDS011;6405;59.208;18.216;2022-12-05T14:49:59;13.90;;;7.13;;
12681;SDS011;6405;59.208;18.216;2022-12-05T14:55:44;15.77;;;8.73;;
12681;SDS011;6405;59.208;18.216;2022-12-05T14:58:18;22.80;;;11.80;;
12681;SDS011;6405;59.208;18.216;2022-12-05T15:01:32;21.00;;;10.37;;
12681;SDS011;6405;59.208;18.216;2022-12-05T15:07:09;14.80;;;8.77;;
12681;SDS011;6405;59.208;18.216;2022-12-05T15:09:56;12.83;;;7.43;;
12681;SDS011;6405;59.208;18.216;2022-12-05T15:12:26;12.70;;;6.80;;
12681;SDS011;6405;59.208;18.216;2022-12-05T15:15:06;15.50;;;6.70;;
12681;SDS011;6405;59.208;18.216;2022-12-05T15:17:46;13.30;;;7.70;;
12681;SDS011;6405;59.208;18.216;2022-12-05T15:22:48;20.53;;;11.00;;
12681;SDS011;6405;59.208;18.216;2022-12-05T15:25:20;18.37;;;10.07;;
12681;SDS011;6405;59.208;18.216;2022-12-05T15:27:59;17.17;;;8.90;;
12681;SDS011;6405;59.208;18.216;2022-12-05T15:30:33;18.27;;;9.67;;
12681;SDS011;6405;59.208;18.216;2022-12-05T15:33:03;15.83;;;8.93;;
12681;SDS011;6405;59.208;18.216;2022-12-05T15:35:31;21.40;;;8.90;;
12681;SDS011;6405;59.208;18.216;2022-12-05T15:38:06;16.93;;;9.07;;
12681;SDS011;6405;59.208;18.216;2022-12-05T15:40:48;17.37;;;7.83;;
12681;SDS011;6405;59.208;18.216;2022-12-05T15:46:07;14.87;;;8.57;;
12681;SDS011;6405;59.208;18.216;2022-12-05T15:48:42;16.57;;;8.13;;
12681;SDS011;6405;59.208;18.216;2022-12-05T15:51:09;14.30;;;8.10;;
12681;SDS011;6405;59.208;18.216;2022-12-05T15:53:39;12.60;;;7.10;;
12681;SDS011;6405;59.208;18.216;2022-12-05T15:56:23;11.47;;;6.77;;
12681;SDS011;6405;59.208;18.216;2022-12-05T15:59:02;16.57;;;7.20;;
12681;SDS011;6405;59.208;18.216;2022-12-05T16:01:38;10.80;;;6.33;;
12681;SDS011;6405;59.208;18.216;2022-12-05T16:04:14;16.27;;;7.23;;
12681;SDS011;6405;59.208;18.216;2022-12-05T16:06:53;12.97;;;7.20;;
12681;SDS011;6405;59.208;18.216;2022-12-05T16:09:22;15.80;;;7.47;;
12681;SDS011;6405;59.208;18.216;2022-12-05T16:11:54;11.83;;;7.83;;
12681;SDS011;6405;59.208;18.216;2022-12-05T16:14:25;19.00;;;8.57;;
12681;SDS011;6405;59.208;18.216;2022-12-05T16:16:58;15.47;;;7.47;;
12681;SDS011;6405;59.208;18.216;2022-12-05T16:19:27;14.23;;;7.60;;
12681;SDS011;6405;59.208;18.216;2022-12-05T16:22:01;12.53;;;7.80;;
12681;SDS011;6405;59.208;18.216;2022-12-05T16:24:54;10.90;;;7.07;;
12681;SDS011;6405;59.208;18.216;2022-12-05T16:27:28;10.93;;;6.23;;
12681;SDS011;6405;59.208;18.216;2022-12-05T16:30:08;13.60;;;7.90;;
12681;SDS011;6405;59.208;18.216;2022-12-05T16:32:42;9.27;;;5.37;;
12681;SDS011;6405;59.208;18.216;2022-12-05T16:43:19;13.20;;;6.60;;
12681;SDS011;6405;59.208;18.216;2022-12-05T16:45:56;22.97;;;10.97;;
12681;SDS011;6405;59.208;18.216;2022-12-05T16:48:46;17.93;;;7.13;;
12681;SDS011;6405;59.208;18.216;2022-12-05T16:51:52;13.63;;;7.80;;
12681;SDS011;6405;59.208;18.216;2022-12-05T16:54:28;17.00;;;9.13;;
12681;SDS011;6405;59.208;18.216;2022-12-05T16:56:55;15.20;;;8.97;;
12681;SDS011;6405;59.208;18.216;2022-12-05T16:59:27;15.17;;;8.10;;
12681;SDS011;6405;59.208;18.216;2022-12-05T17:02:05;13.27;;;8.30;;
12681;SDS011;6405;59.208;18.216;2022-12-05T17:04:37;18.93;;;9.40;;
12681;SDS011;6405;59.208;18.216;2022-12-05T17:07:04;19.77;;;9.43;;
12681;SDS011;6405;59.208;18.216;2022-12-05T17:09:31;13.23;;;9.23;;
12681;SDS011;6405;59.208;18.216;2022-12-05T17:12:06;16.70;;;9.30;;
12681;SDS011;6405;59.208;18.216;2022-12-05T17:14:38;13.30;;;8.93;;
12681;SDS011;6405;59.208;18.216;2022-12-05T17:17:09;13.53;;;8.70;;
12681;SDS011;6405;59.208;18.216;2022-12-05T17:19:38;11.73;;;7.90;;
12681;SDS011;6405;59.208;18.216;2022-12-05T17:22:06;16.47;;;8.40;;
12681;SDS011;6405;59.208;18.216;2022-12-05T17:24:32;15.37;;;8.63;;
12681;SDS011;6405;59.208;18.216;2022-12-05T17:27:00;15.57;;;8.00;;
12681;SDS011;6405;59.208;18.216;2022-12-05T17:29:28;15.47;;;8.40;;
12681;SDS011;6405;59.208;18.216;2022-12-05T17:31:55;15.67;;;8.83;;
12681;SDS011;6405;59.208;18.216;2022-12-05T17:34:22;15.70;;;9.17;;
12681;SDS011;6405;59.208;18.216;2022-12-05T17:36:47;16.23;;;10.13;;
12681;SDS011;6405;59.208;18.216;2022-12-05T17:39:14;18.43;;;9.63;;
12681;SDS011;6405;59.208;18.216;2022-12-05T17:41:40;13.20;;;8.07;;
12681;SDS011;6405;59.208;18.216;2022-12-05T17:44:09;16.67;;;9.33;;
12681;SDS011;6405;59.208;18.216;2022-12-05T17:46:40;16.60;;;9.80;;
12681;SDS011;6405;59.208;18.216;2022-12-05T17:49:11;13.10;;;8.77;;
12681;SDS011;6405;59.208;18.216;2022-12-05T17:51:39;16.60;;;9.43;;
12681;SDS011;6405;59.208;18.216;2022-12-05T17:54:07;19.37;;;9.47;;
12681;SDS011;6405;59.208;18.216;2022-12-05T17:56:34;17.77;;;9.77;;
12681;SDS011;6405;59.208;18.216;2022-12-05T17:59:02;18.10;;;9.83;;
12681;SDS011;6405;59.208;18.216;2022-12-05T18:01:28;15.13;;;9.80;;
12681;SDS011;6405;59.208;18.216;2022-12-05T18:03:54;15.80;;;9.37;;
12681;SDS011;6405;59.208;18.216;2022-12-05T18:06:21;17.67;;;9.60;;
12681;SDS011;6405;59.208;18.216;2022-12-05T18:08:49;17.43;;;9.87;;
12681;SDS011;6405;59.208;18.216;2022-12-05T18:11:16;18.03;;;9.87;;